Aviation Digital Data Service (ADDS)

Output produced by METARs form (0214 UTC 14 December 2017)
found at http://www.aviationweather.gov/adds/metars/
 
METAR text: KHLG 140202Z 13007KT 8SM OVC034 M06/M07 A2946 RMK AO2 SNE02 P0000 T10561072
Conditions at: KHLG (WHEELING , WV, US) observed 0202 UTC 14 December 2017
Temperature: -5.6°C (22°F)
Dewpoint: -7.2°C (19°F) [RH = 88%]
Pressure (altimeter): 29.46 inches Hg (997.7 mb)
Winds: from the SE (130 degrees) at 8 MPH (7 knots; 3.6 m/s)
Visibility: 8 miles (13 km)
Ceiling: 3400 feet AGL
Clouds: overcast cloud deck at 3400 feet AGL
Weather: no significant weather observed at this time

METAR text: KHLG 140153Z 14006KT 4SM -SN BR OVC028 M06/M07 A2946 RMK AO2 SLP997 P0000 T10561072
Conditions at: KHLG (WHEELING , WV, US) observed 0153 UTC 14 December 2017
Temperature: -5.6°C (22°F)
Dewpoint: -7.2°C (19°F) [RH = 88%]
Pressure (altimeter): 29.46 inches Hg (997.7 mb)
[Sea-level pressure: 999.7 mb]
Winds: from the SE (140 degrees) at 7 MPH (6 knots; 3.1 m/s)
Visibility: 4 miles (6 km)
Ceiling: 2800 feet AGL
Clouds: overcast cloud deck at 2800 feet AGL
Weather: -SN BR  (light snow, mist)

METAR text: KHLG 140137Z 14005KT 2SM -SN BR BKN026 OVC065 M06/M08 A2948 RMK AO2 P0000 T10561078
Conditions at: KHLG (WHEELING , WV, US) observed 0137 UTC 14 December 2017
Temperature: -5.6°C (22°F)
Dewpoint: -7.8°C (18°F) [RH = 84%]
Pressure (altimeter): 29.48 inches Hg (998.4 mb)
Winds: from the SE (140 degrees) at 6 MPH (5 knots; 2.6 m/s)
Visibility: 2.00 miles (3.22 km)
Ceiling: 2600 feet AGL
Clouds: broken clouds at 2600 feet AGL
overcast cloud deck at 6500 feet AGL
Weather: -SN BR  (light snow, mist)

METAR text: KHLG 140115Z 19006KT 5SM -SN BR BKN019 OVC060 M06/M08 A2950 RMK AO2 P0000 T10561078
Conditions at: KHLG (WHEELING , WV, US) observed 0115 UTC 14 December 2017
Temperature: -5.6°C (22°F)
Dewpoint: -7.8°C (18°F) [RH = 84%]
Pressure (altimeter): 29.50 inches Hg (999.1 mb)
Winds: from the S (190 degrees) at 7 MPH (6 knots; 3.1 m/s)
Visibility: 5 miles (8 km)
Ceiling: 1900 feet AGL
Clouds: broken clouds at 1900 feet AGL
overcast cloud deck at 6000 feet AGL
Weather: -SN BR  (light snow, mist)

METAR text: KHLG 140111Z 19006KT 2SM -SN BR BKN014 OVC060 M06/M08 A2950 RMK AO2 PRESFR P0000 T10611078
Conditions at: KHLG (WHEELING , WV, US) observed 0111 UTC 14 December 2017
Temperature: -6.1°C (21°F)
Dewpoint: -7.8°C (18°F) [RH = 88%]
Pressure (altimeter): 29.50 inches Hg (999.1 mb)
Winds: from the S (190 degrees) at 7 MPH (6 knots; 3.1 m/s)
Visibility: 2.00 miles (3.22 km)
Ceiling: 1400 feet AGL
Clouds: broken clouds at 1400 feet AGL
overcast cloud deck at 6000 feet AGL
Weather: -SN BR  (light snow, mist)

METAR text: KHLG 140103Z 20009KT 3/4SM R03/6000VP6000FT -SN VV014 M06/M08 A2951 RMK AO2 P0000 T10561083
Conditions at: KHLG (WHEELING , WV, US) observed 0103 UTC 14 December 2017
Temperature: -5.6°C (22°F)
Dewpoint: -8.3°C (17°F) [RH = 81%]
Pressure (altimeter): 29.51 inches Hg (999.4 mb)
Winds: from the SSW (200 degrees) at 10 MPH (9 knots; 4.7 m/s)
Visibility: 0.75 miles (1.21 km)
Ceiling: indefinite ceiling with vertical visibility of 1400 feet AGL
Clouds: obscured sky
Weather: -SN  (light snow)

METAR text: KHLG 140053Z 21008G19KT 1 1/4SM -SN OVC019 M06/M09 A2952 RMK AO2 SNB40 SLP016 P0000 T10561089
Conditions at: KHLG (WHEELING , WV, US) observed 0053 UTC 14 December 2017
Temperature: -5.6°C (22°F)
Dewpoint: -8.9°C (16°F) [RH = 77%]
Pressure (altimeter): 29.52 inches Hg (999.7 mb)
[Sea-level pressure: 1001.6 mb]
Winds: from the SSW (210 degrees) at 9 MPH (8 knots; 4.2 m/s)
gusting to 22 MPH (19 knots; 9.9 m/s)
Visibility: 1.25 miles (2.01 km)
Ceiling: 1900 feet AGL
Clouds: overcast cloud deck at 1900 feet AGL
Weather: -SN  (light snow)

METAR text: KHLG 140047Z 21011G19KT 2 1/2SM -SN OVC025 M06/M10 A2953 RMK AO2 VIS 1 1/4V5 SNB40 P0000
Conditions at: KHLG (WHEELING , WV, US) observed 0047 UTC 14 December 2017
Temperature: -6.0°C (21°F)
Dewpoint: -10.0°C (14°F) [RH = 73%]
Pressure (altimeter): 29.53 inches Hg (1000.1 mb)
Winds: from the SSW (210 degrees) at 13 MPH (11 knots; 5.7 m/s)
gusting to 22 MPH (19 knots; 9.9 m/s)
Visibility: 2.50 miles (4.02 km)
Ceiling: 2500 feet AGL
Clouds: overcast cloud deck at 2500 feet AGL
Weather: -SN  (light snow)

METAR text: KHLG 132353Z 12007KT 10SM BKN065 OVC080 M06/M10 A2950 RMK AO2 SLP009 60002 T10611100 11050 21067 56034
Conditions at: KHLG (WHEELING , WV, US) observed 2353 UTC 13 December 2017
Temperature: -6.1°C (21°F)
Dewpoint: -10.0°C (14°F) [RH = 74%]
Pressure (altimeter): 29.50 inches Hg (999.1 mb)
[Sea-level pressure: 1000.9 mb]
Winds: from the ESE (120 degrees) at 8 MPH (7 knots; 3.6 m/s)
Visibility: 10 or more miles (16+ km)
Ceiling: 6500 feet AGL
Clouds: broken clouds at 6500 feet AGL
overcast cloud deck at 8000 feet AGL
Weather: no significant weather observed at this time

METAR text: KHLG 132253Z 13010KT 10SM OVC095 M07/M10 A2951 RMK AO2 SLP015 T10671100
Conditions at: KHLG (WHEELING , WV, US) observed 2253 UTC 13 December 2017
Temperature: -6.7°C (20°F)
Dewpoint: -10.0°C (14°F) [RH = 77%]
Pressure (altimeter): 29.51 inches Hg (999.4 mb)
[Sea-level pressure: 1001.5 mb]
Winds: from the SE (130 degrees) at 12 MPH (10 knots; 5.2 m/s)
Visibility: 10 or more miles (16+ km)
Ceiling: 9500 feet AGL
Clouds: overcast cloud deck at 9500 feet AGL
Weather: no significant weather observed at this time

METAR text: KHLG 132153Z 13010KT 10SM SCT075 OVC110 M07/M10 A2956 RMK AO2 SNE10 SLP030 P0000 T10671100
Conditions at: KHLG (WHEELING , WV, US) observed 2153 UTC 13 December 2017
Temperature: -6.7°C (20°F)
Dewpoint: -10.0°C (14°F) [RH = 77%]
Pressure (altimeter): 29.56 inches Hg (1001.1 mb)
[Sea-level pressure: 1003.0 mb]
Winds: from the SE (130 degrees) at 12 MPH (10 knots; 5.2 m/s)
Visibility: 10 or more miles (16+ km)
Ceiling: 11000 feet AGL
Clouds: scattered clouds at 7500 feet AGL
overcast cloud deck at 11000 feet AGL
Weather: no significant weather observed at this time

METAR text: KHLG 132102Z 15007KT 4SM -SN BR FEW009 SCT020 OVC090 M07/M09 A2959 RMK AO2 P0000 T10671089
Conditions at: KHLG (WHEELING , WV, US) observed 2102 UTC 13 December 2017
Temperature: -6.7°C (20°F)
Dewpoint: -8.9°C (16°F) [RH = 84%]
Pressure (altimeter): 29.59 inches Hg (1002.1 mb)
Winds: from the SSE (150 degrees) at 8 MPH (7 knots; 3.6 m/s)
Visibility: 4 miles (6 km)
Ceiling: 9000 feet AGL
Clouds: few clouds at 900 feet AGL
scattered clouds at 2000 feet AGL
overcast cloud deck at 9000 feet AGL
Weather: -SN BR  (light snow, mist)

METAR text: KHLG 132057Z 15006KT 2 1/2SM -SN BR SCT020 OVC090 M07/M09 A2960 RMK AO2 P0000 T10671089
Conditions at: KHLG (WHEELING , WV, US) observed 2057 UTC 13 December 2017
Temperature: -6.7°C (20°F)
Dewpoint: -8.9°C (16°F) [RH = 84%]
Pressure (altimeter): 29.60 inches Hg (1002.5 mb)
Winds: from the SSE (150 degrees) at 7 MPH (6 knots; 3.1 m/s)
Visibility: 2.50 miles (4.02 km)
Ceiling: 9000 feet AGL
Clouds: scattered clouds at 2000 feet AGL
overcast cloud deck at 9000 feet AGL
Weather: -SN BR  (light snow, mist)

METAR text: KHLG 132053Z 17010KT 1 3/4SM -SN BR BKN018 OVC090 M07/M09 A2960 RMK AO2 SLP046 P0002 60002 T10671089 58044
Conditions at: KHLG (WHEELING , WV, US) observed 2053 UTC 13 December 2017
Temperature: -6.7°C (20°F)
Dewpoint: -8.9°C (16°F) [RH = 84%]
Pressure (altimeter): 29.60 inches Hg (1002.5 mb)
[Sea-level pressure: 1004.6 mb]
Winds: from the S (170 degrees) at 12 MPH (10 knots; 5.2 m/s)
Visibility: 1.75 miles (2.82 km)
Ceiling: 1800 feet AGL
Clouds: broken clouds at 1800 feet AGL
overcast cloud deck at 9000 feet AGL
Weather: -SN BR  (light snow, mist)

METAR text: KHLG 132045Z 16007KT 1SM R03/5000VP6000FT -SN BR VV018 M07/M09 A2961 RMK AO2 P0002 T10671089
Conditions at: KHLG (WHEELING , WV, US) observed 2045 UTC 13 December 2017
Temperature: -6.7°C (20°F)
Dewpoint: -8.9°C (16°F) [RH = 84%]
Pressure (altimeter): 29.61 inches Hg (1002.8 mb)
Winds: from the SSE (160 degrees) at 8 MPH (7 knots; 3.6 m/s)
Visibility: 1.00 miles (1.61 km)
Ceiling: indefinite ceiling with vertical visibility of 1800 feet AGL
Clouds: obscured sky
Weather: -SN BR  (light snow, mist)

METAR text: KHLG 132038Z 16007KT 3/4SM R03/4500V6000FT -SN BR VV015 M07/M09 A2961 RMK AO2 P0002 T10671089
Conditions at: KHLG (WHEELING , WV, US) observed 2038 UTC 13 December 2017
Temperature: -6.7°C (20°F)
Dewpoint: -8.9°C (16°F) [RH = 84%]
Pressure (altimeter): 29.61 inches Hg (1002.8 mb)
Winds: from the SSE (160 degrees) at 8 MPH (7 knots; 3.6 m/s)
Visibility: 0.75 miles (1.21 km)
Ceiling: indefinite ceiling with vertical visibility of 1500 feet AGL
Clouds: obscured sky
Weather: -SN BR  (light snow, mist)

METAR text: KHLG 132018Z 16006KT 1/2SM R03/3500V6000FT SN FZFG VV014 M07/M09 A2963 RMK AO2 P0001 T10671089
Conditions at: KHLG (WHEELING , WV, US) observed 2018 UTC 13 December 2017
Temperature: -6.7°C (20°F)
Dewpoint: -8.9°C (16°F) [RH = 84%]
Pressure (altimeter): 29.63 inches Hg (1003.5 mb)
Winds: from the SSE (160 degrees) at 7 MPH (6 knots; 3.1 m/s)
Visibility: 0.50 miles (0.80 km)
Ceiling: indefinite ceiling with vertical visibility of 1400 feet AGL
Clouds: obscured sky
Weather: SN FZFG  (snow, freezing fog)

METAR text: KHLG 132003Z 19007KT 1/2SM R03/4500VP6000FT SN VV016 M07/M09 A2965 RMK AO2 P0000 T10671094
Conditions at: KHLG (WHEELING , WV, US) observed 2003 UTC 13 December 2017
Temperature: -6.7°C (20°F)
Dewpoint: -9.4°C (15°F) [RH = 81%]
Pressure (altimeter): 29.65 inches Hg (1004.1 mb)
Winds: from the S (190 degrees) at 8 MPH (7 knots; 3.6 m/s)
Visibility: 0.50 miles (0.80 km)
Ceiling: indefinite ceiling with vertical visibility of 1600 feet AGL
Clouds: obscured sky
Weather: SN  (snow)

METAR text: KHLG 131950Z 19009KT 1SM R03/4500VP6000FT -SN VV017 M07/M09 A2966 RMK AO2 SNB00 SLP066 P0000 T10671094
Conditions at: KHLG (WHEELING , WV, US) observed 1950 UTC 13 December 2017
Temperature: -6.7°C (20°F)
Dewpoint: -9.4°C (15°F) [RH = 81%]
Pressure (altimeter): 29.66 inches Hg (1004.5 mb)
[Sea-level pressure: 1006.6 mb]
Winds: from the S (190 degrees) at 10 MPH (9 knots; 4.7 m/s)
Visibility: 1.00 miles (1.61 km)
Ceiling: indefinite ceiling with vertical visibility of 1700 feet AGL
Clouds: obscured sky
Weather: -SN  (light snow)

METAR text: KHLG 131949Z 19008KT 1SM R03/4500VP6000FT -SN VV017 M07/M09 A2966 RMK AO2 SNB00 P0000
Conditions at: KHLG (WHEELING , WV, US) observed 1949 UTC 13 December 2017
Temperature: -7.0°C (19°F)
Dewpoint: -9.0°C (16°F) [RH = 86%]
Pressure (altimeter): 29.66 inches Hg (1004.5 mb)
Winds: from the S (190 degrees) at 9 MPH (8 knots; 4.2 m/s)
Visibility: 1.00 miles (1.61 km)
Ceiling: indefinite ceiling with vertical visibility of 1700 feet AGL
Clouds: obscured sky
Weather: -SN  (light snow)

METAR text: KHLG 131942Z 20009KT 1/2SM R03/4000V5000FT SN VV014 M07/M09 A2967 RMK AO2 SNB00 P0000 T10671094
Conditions at: KHLG (WHEELING , WV, US) observed 1942 UTC 13 December 2017
Temperature: -6.7°C (20°F)
Dewpoint: -9.4°C (15°F) [RH = 81%]
Pressure (altimeter): 29.67 inches Hg (1004.8 mb)
Winds: from the SSW (200 degrees) at 10 MPH (9 knots; 4.7 m/s)
Visibility: 0.50 miles (0.80 km)
Ceiling: indefinite ceiling with vertical visibility of 1400 feet AGL
Clouds: obscured sky
Weather: SN  (snow)

METAR text: KHLG 131934Z 20009KT 3/4SM R03/4000VP6000FT -SN VV017 M07/M10 A2968 RMK AO2 SNB00 P0000 T10671100
Conditions at: KHLG (WHEELING , WV, US) observed 1934 UTC 13 December 2017
Temperature: -6.7°C (20°F)
Dewpoint: -10.0°C (14°F) [RH = 77%]
Pressure (altimeter): 29.68 inches Hg (1005.2 mb)
Winds: from the SSW (200 degrees) at 10 MPH (9 knots; 4.7 m/s)
Visibility: 0.75 miles (1.21 km)
Ceiling: indefinite ceiling with vertical visibility of 1700 feet AGL
Clouds: obscured sky
Weather: -SN  (light snow)

METAR text: KHLG 131922Z 22008KT 1 1/4SM -SN BKN022 OVC035 M06/M11 A2969 RMK AO2 SNB00 PRESFR P0000 T10611106
Conditions at: KHLG (WHEELING , WV, US) observed 1922 UTC 13 December 2017
Temperature: -6.1°C (21°F)
Dewpoint: -10.6°C (13°F) [RH = 70%]
Pressure (altimeter): 29.69 inches Hg (1005.5 mb)
Winds: from the SW (220 degrees) at 9 MPH (8 knots; 4.2 m/s)
Visibility: 1.25 miles (2.01 km)
Ceiling: 2200 feet AGL
Clouds: broken clouds at 2200 feet AGL
overcast cloud deck at 3500 feet AGL
Weather: -SN  (light snow)

METAR text: KHLG 131913Z 23008KT 2SM -SN BKN028 OVC035 M06/M11 A2970 RMK AO2 SNB00 P0000 T10611111
Conditions at: KHLG (WHEELING , WV, US) observed 1913 UTC 13 December 2017
Temperature: -6.1°C (21°F)
Dewpoint: -11.1°C (12°F) [RH = 68%]
Pressure (altimeter): 29.70 inches Hg (1005.8 mb)
Winds: from the SW (230 degrees) at 9 MPH (8 knots; 4.2 m/s)
Visibility: 2.00 miles (3.22 km)
Ceiling: 2800 feet AGL
Clouds: broken clouds at 2800 feet AGL
overcast cloud deck at 3500 feet AGL
Weather: -SN  (light snow)

METAR text: KHLG 131853Z 22008G16KT 8SM BKN040 OVC047 M06/M12 A2971 RMK AO2 SLP083 T10561117
Conditions at: KHLG (WHEELING , WV, US) observed 1853 UTC 13 December 2017
Temperature: -5.6°C (22°F)
Dewpoint: -11.7°C (11°F) [RH = 62%]
Pressure (altimeter): 29.71 inches Hg (1006.2 mb)
[Sea-level pressure: 1008.3 mb]
Winds: from the SW (220 degrees) at 9 MPH (8 knots; 4.2 m/s)
gusting to 18 MPH (16 knots; 8.3 m/s)
Visibility: 8 miles (13 km)
Ceiling: 4000 feet AGL
Clouds: broken clouds at 4000 feet AGL
overcast cloud deck at 4700 feet AGL
Weather: no significant weather observed at this time

METAR text: KHLG 131753Z 21013G18KT 10SM FEW031 BKN050 OVC060 M05/M13 A2974 RMK AO2 SLP091 T10501133 11044 21089 58036
Conditions at: KHLG (WHEELING , WV, US) observed 1753 UTC 13 December 2017
Temperature: -5.0°C (23°F)
Dewpoint: -13.3°C (8°F) [RH = 52%]
Pressure (altimeter): 29.74 inches Hg (1007.2 mb)
[Sea-level pressure: 1009.1 mb]
Winds: from the SSW (210 degrees) at 15 MPH (13 knots; 6.8 m/s)
gusting to 21 MPH (18 knots; 9.4 m/s)
Visibility: 10 or more miles (16+ km)
Ceiling: 5000 feet AGL
Clouds: few clouds at 3100 feet AGL
broken clouds at 5000 feet AGL
overcast cloud deck at 6000 feet AGL
Weather: no significant weather observed at this time

METAR text: KHLG 131653Z 22011G15KT 10SM FEW031 SCT050 OVC075 M05/M13 A2978 RMK AO2 SLP106 T10501128
Conditions at: KHLG (WHEELING , WV, US) observed 1653 UTC 13 December 2017
Temperature: -5.0°C (23°F)
Dewpoint: -12.8°C (9°F) [RH = 54%]
Pressure (altimeter): 29.78 inches Hg (1008.5 mb)
[Sea-level pressure: 1010.6 mb]
Winds: from the SW (220 degrees) at 13 MPH (11 knots; 5.7 m/s)
gusting to 17 MPH (15 knots; 7.8 m/s)
Visibility: 10 or more miles (16+ km)
Ceiling: 7500 feet AGL
Clouds: few clouds at 3100 feet AGL
scattered clouds at 5000 feet AGL
overcast cloud deck at 7500 feet AGL
Weather: no significant weather observed at this time

METAR text: KHLG 131611Z 25013G23KT 10SM BKN031 M06/M13 A2981 RMK AO2 T10611133
Conditions at: KHLG (WHEELING , WV, US) observed 1611 UTC 13 December 2017
Temperature: -6.1°C (21°F)
Dewpoint: -13.3°C (8°F) [RH = 57%]
Pressure (altimeter): 29.81 inches Hg (1009.6 mb)
Winds: from the WSW (250 degrees) at 15 MPH (13 knots; 6.8 m/s)
gusting to 26 MPH (23 knots; 12.0 m/s)
Visibility: 10 or more miles (16+ km)
Ceiling: 3100 feet AGL
Clouds: broken clouds at 3100 feet AGL
Weather: no significant weather observed at this time

METAR text: KHLG 131553Z 22016G21KT 10SM BKN029 M07/M13 A2981 RMK AO2 SLP118 T10671133
Conditions at: KHLG (WHEELING , WV, US) observed 1553 UTC 13 December 2017
Temperature: -6.7°C (20°F)
Dewpoint: -13.3°C (8°F) [RH = 59%]
Pressure (altimeter): 29.81 inches Hg (1009.6 mb)
[Sea-level pressure: 1011.8 mb]
Winds: from the SW (220 degrees) at 18 MPH (16 knots; 8.3 m/s)
gusting to 24 MPH (21 knots; 10.9 m/s)
Visibility: 10 or more miles (16+ km)
Ceiling: 2900 feet AGL
Clouds: broken clouds at 2900 feet AGL
Weather: no significant weather observed at this time

METAR text: KHLG 131545Z 26009KT 10SM BKN029 BKN036 BKN080 M06/M13 A2982 RMK AO2 T10611128
Conditions at: KHLG (WHEELING , WV, US) observed 1545 UTC 13 December 2017
Temperature: -6.1°C (21°F)
Dewpoint: -12.8°C (9°F) [RH = 59%]
Pressure (altimeter): 29.82 inches Hg (1009.9 mb)
Winds: from the W (260 degrees) at 10 MPH (9 knots; 4.7 m/s)
Visibility: 10 or more miles (16+ km)
Ceiling: 2900 feet AGL
Clouds: broken clouds at 2900 feet AGL
broken clouds at 3600 feet AGL
broken clouds at 8000 feet AGL
Weather: no significant weather observed at this time

METAR text: KHLG 131453Z 25011KT 10SM SCT020 OVC039 M07/M12 A2985 RMK AO2 SLP129 T10721117 55004
Conditions at: KHLG (WHEELING , WV, US) observed 1453 UTC 13 December 2017
Temperature: -7.2°C (19°F)
Dewpoint: -11.7°C (11°F) [RH = 70%]
Pressure (altimeter): 29.85 inches Hg (1010.9 mb)
[Sea-level pressure: 1012.9 mb]
Winds: from the WSW (250 degrees) at 13 MPH (11 knots; 5.7 m/s)
Visibility: 10 or more miles (16+ km)
Ceiling: 3900 feet AGL
Clouds: scattered clouds at 2000 feet AGL
overcast cloud deck at 3900 feet AGL
Weather: no significant weather observed at this time

METAR text: KHLG 131353Z 24009G15KT 10SM OVC042 M08/M13 A2984 RMK AO2 SLP128 T10831128
Conditions at: KHLG (WHEELING , WV, US) observed 1353 UTC 13 December 2017
Temperature: -8.3°C (17°F)
Dewpoint: -12.8°C (9°F) [RH = 70%]
Pressure (altimeter): 29.84 inches Hg (1010.6 mb)
[Sea-level pressure: 1012.8 mb]
Winds: from the WSW (240 degrees) at 10 MPH (9 knots; 4.7 m/s)
gusting to 17 MPH (15 knots; 7.8 m/s)
Visibility: 10 or more miles (16+ km)
Ceiling: 4200 feet AGL
Clouds: overcast cloud deck at 4200 feet AGL
Weather: no significant weather observed at this time

METAR text: KHLG 131253Z 25009KT 10SM OVC044 M08/M14 A2985 RMK AO2 SLP131 T10831144
Conditions at: KHLG (WHEELING , WV, US) observed 1253 UTC 13 December 2017
Temperature: -8.3°C (17°F)
Dewpoint: -14.4°C (6°F) [RH = 61%]
Pressure (altimeter): 29.85 inches Hg (1010.9 mb)
[Sea-level pressure: 1013.1 mb]
Winds: from the WSW (250 degrees) at 10 MPH (9 knots; 4.7 m/s)
Visibility: 10 or more miles (16+ km)
Ceiling: 4400 feet AGL
Clouds: overcast cloud deck at 4400 feet AGL
Weather: no significant weather observed at this time

METAR text: KHLG 131153Z 27009KT 10SM OVC046 M09/M16 A2986 RMK AO2 SLP134 70001 T10891156 11089 21100 53007
Conditions at: KHLG (WHEELING , WV, US) observed 1153 UTC 13 December 2017
Temperature: -8.9°C (16°F)
Dewpoint: -15.6°C (4°F) [RH = 58%]
Pressure (altimeter): 29.86 inches Hg (1011.3 mb)
[Sea-level pressure: 1013.4 mb]
Winds: from the W (270 degrees) at 10 MPH (9 knots; 4.7 m/s)
Visibility: 10 or more miles (16+ km)
Ceiling: 4600 feet AGL
Clouds: overcast cloud deck at 4600 feet AGL
Weather: no significant weather observed at this time

METAR text: KHLG 131053Z AUTO 26011KT 10SM OVC046 M09/M16 A2985 RMK AO2 SLP130 T10891161
Conditions at: KHLG (WHEELING , WV, US) observed 1053 UTC 13 December 2017
Temperature: -8.9°C (16°F)
Dewpoint: -16.1°C (3°F) [RH = 56%]
Pressure (altimeter): 29.85 inches Hg (1010.9 mb)
[Sea-level pressure: 1013.0 mb]
Winds: from the W (260 degrees) at 13 MPH (11 knots; 5.7 m/s)
Visibility: 10 or more miles (16+ km)
Ceiling: 4600 feet AGL
Clouds: overcast cloud deck at 4600 feet AGL
Weather: automated observation with no human augmentation;
there may or may not be significant weather present at this time

METAR text: KHLG 130953Z AUTO 28012G19KT 10SM OVC048 M09/M17 A2984 RMK AO2 SLP126 T10941167
Conditions at: KHLG (WHEELING , WV, US) observed 0953 UTC 13 December 2017
Temperature: -9.4°C (15°F)
Dewpoint: -16.7°C (2°F) [RH = 55%]
Pressure (altimeter): 29.84 inches Hg (1010.6 mb)
[Sea-level pressure: 1012.6 mb]
Winds: from the W (280 degrees) at 14 MPH (12 knots; 6.2 m/s)
gusting to 22 MPH (19 knots; 9.9 m/s)
Visibility: 10 or more miles (16+ km)
Ceiling: 4800 feet AGL
Clouds: overcast cloud deck at 4800 feet AGL
Weather: automated observation with no human augmentation;
there may or may not be significant weather present at this time

METAR text: KHLG 130853Z AUTO 27010G17KT 10SM BKN050 M10/M18 A2984 RMK AO2 SLP127 T11001178 53009
Conditions at: KHLG (WHEELING , WV, US) observed 0853 UTC 13 December 2017
Temperature: -10.0°C (14°F)
Dewpoint: -17.8°C (-0°F) [RH = 53%]
Pressure (altimeter): 29.84 inches Hg (1010.6 mb)
[Sea-level pressure: 1012.7 mb]
Winds: from the W (270 degrees) at 12 MPH (10 knots; 5.2 m/s)
gusting to 20 MPH (17 knots; 8.8 m/s)
Visibility: 10 or more miles (16+ km)
Ceiling: 5000 feet AGL
Clouds: broken clouds at 5000 feet AGL
Weather: automated observation with no human augmentation;
there may or may not be significant weather present at this time

METAR text: KHLG 130753Z AUTO 27009G17KT 10SM OVC050 M09/M17 A2983 RMK AO2 SLP122 T10941172
Conditions at: KHLG (WHEELING , WV, US) observed 0753 UTC 13 December 2017
Temperature: -9.4°C (15°F)
Dewpoint: -17.2°C (1°F) [RH = 53%]
Pressure (altimeter): 29.83 inches Hg (1010.2 mb)
[Sea-level pressure: 1012.2 mb]
Winds: from the W (270 degrees) at 10 MPH (9 knots; 4.7 m/s)
gusting to 20 MPH (17 knots; 8.8 m/s)
Visibility: 10 or more miles (16+ km)
Ceiling: 5000 feet AGL
Clouds: overcast cloud deck at 5000 feet AGL
Weather: automated observation with no human augmentation;
there may or may not be significant weather present at this time

METAR text: KHLG 130653Z AUTO 27014G18KT 10SM CLR M10/M17 A2982 RMK AO2 SLP118 T11001172
Conditions at: KHLG (WHEELING , WV, US) observed 0653 UTC 13 December 2017
Temperature: -10.0°C (14°F)
Dewpoint: -17.2°C (1°F) [RH = 56%]
Pressure (altimeter): 29.82 inches Hg (1009.9 mb)
[Sea-level pressure: 1011.8 mb]
Winds: from the W (270 degrees) at 16 MPH (14 knots; 7.3 m/s)
gusting to 21 MPH (18 knots; 9.4 m/s)
Visibility: 10 or more miles (16+ km)
Ceiling: at least 12,000 feet AGL
Clouds: sky clear below 12,000 feet AGL
Weather: automated observation with no human augmentation;
there may or may not be significant weather present at this time

METAR text: KHLG 130553Z AUTO 28010G18KT 10SM SCT043 M10/M17 A2981 RMK AO2 SLP115 T11001172 11083 21100 56003
Conditions at: KHLG (WHEELING , WV, US) observed 0553 UTC 13 December 2017
Temperature: -10.0°C (14°F)
Dewpoint: -17.2°C (1°F) [RH = 56%]
Pressure (altimeter): 29.81 inches Hg (1009.6 mb)
[Sea-level pressure: 1011.5 mb]
Winds: from the W (280 degrees) at 12 MPH (10 knots; 5.2 m/s)
gusting to 21 MPH (18 knots; 9.4 m/s)
Visibility: 10 or more miles (16+ km)
Ceiling: at least 12,000 feet AGL
Clouds: scattered clouds at 4300 feet AGL
Weather: automated observation with no human augmentation;
there may or may not be significant weather present at this time

METAR text: KHLG 130453Z AUTO 29012G18KT 10SM CLR M09/M17 A2981 RMK AO2 SLP116 T10941172 400501094
Conditions at: KHLG (WHEELING , WV, US) observed 0453 UTC 13 December 2017
Temperature: -9.4°C (15°F)
Dewpoint: -17.2°C (1°F) [RH = 53%]
Pressure (altimeter): 29.81 inches Hg (1009.6 mb)
[Sea-level pressure: 1011.6 mb]
Winds: from the WNW (290 degrees) at 14 MPH (12 knots; 6.2 m/s)
gusting to 21 MPH (18 knots; 9.4 m/s)
Visibility: 10 or more miles (16+ km)
Ceiling: at least 12,000 feet AGL
Clouds: sky clear below 12,000 feet AGL
Weather: automated observation with no human augmentation;
there may or may not be significant weather present at this time

METAR text: KHLG 130353Z AUTO 27015G19KT 10SM CLR M09/M17 A2981 RMK AO2 SLP115 T10941167
Conditions at: KHLG (WHEELING , WV, US) observed 0353 UTC 13 December 2017
Temperature: -9.4°C (15°F)
Dewpoint: -16.7°C (2°F) [RH = 55%]
Pressure (altimeter): 29.81 inches Hg (1009.6 mb)
[Sea-level pressure: 1011.5 mb]
Winds: from the W (270 degrees) at 17 MPH (15 knots; 7.8 m/s)
gusting to 22 MPH (19 knots; 9.9 m/s)
Visibility: 10 or more miles (16+ km)
Ceiling: at least 12,000 feet AGL
Clouds: sky clear below 12,000 feet AGL
Weather: automated observation with no human augmentation;
there may or may not be significant weather present at this time

METAR text: KHLG 130253Z 27011G21KT 10SM CLR M09/M17 A2982 RMK AO2 SLP118 T10941167 58002
Conditions at: KHLG (WHEELING , WV, US) observed 0253 UTC 13 December 2017
Temperature: -9.4°C (15°F)
Dewpoint: -16.7°C (2°F) [RH = 55%]
Pressure (altimeter): 29.82 inches Hg (1009.9 mb)
[Sea-level pressure: 1011.8 mb]
Winds: from the W (270 degrees) at 13 MPH (11 knots; 5.7 m/s)
gusting to 24 MPH (21 knots; 10.9 m/s)
Visibility: 10 or more miles (16+ km)
Ceiling: at least 12,000 feet AGL
Clouds: sky clear below 12,000 feet AGL
Weather: no significant weather observed at this time